sensor_id;sensor_type;location;lat;lon;timestamp;pressure;altitude;pressure_sealevel;temperature;humidity
23164;BME280;31429;42.674;23.350;2023-08-17T00:00:17;94871.56;;;23.35;100.00
23164;BME280;31429;42.674;23.350;2023-08-17T00:01:39;94884.91;;;23.41;100.00
23164;BME280;31429;42.674;23.350;2023-08-17T00:02:40;94883.97;;;23.42;100.00
23164;BME280;31429;42.674;23.350;2023-08-17T00:03:40;94877.28;;;23.59;100.00
23164;BME280;31429;42.674;23.350;2023-08-17T00:04:41;94877.97;;;23.52;100.00
23164;BME280;31429;42.674;23.350;2023-08-17T00:06:02;94881.31;;;23.73;100.00
23164;BME280;31429;42.674;23.350;2023-08-17T00:07:02;94883.00;;;23.83;100.00
23164;BME280;31429;42.674;23.350;2023-08-17T00:08:04;94879.00;;;23.70;100.00
23164;BME280;31429;42.674;23.350;2023-08-17T00:09:05;94877.72;;;23.34;100.00
23164;BME280;31429;42.674;23.350;2023-08-17T00:10:25;94882.69;;;23.37;100.00
23164;BME280;31429;42.674;23.350;2023-08-17T00:11:26;94875.69;;;23.37;100.00
23164;BME280;31429;42.674;23.350;2023-08-17T00:12:26;94870.44;;;23.68;100.00
23164;BME280;31429;42.674;23.350;2023-08-17T00:13:27;94871.44;;;23.67;100.00
23164;BME280;31429;42.674;23.350;2023-08-17T00:14:28;94879.38;;;23.65;100.00
23164;BME280;31429;42.674;23.350;2023-08-17T00:15:28;94874.31;;;23.64;100.00
23164;BME280;31429;42.674;23.350;2023-08-17T00:16:29;94874.00;;;23.57;100.00
23164;BME280;31429;42.674;23.350;2023-08-17T00:17:31;94878.00;;;23.71;100.00
23164;BME280;31429;42.674;23.350;2023-08-17T00:18:32;94876.38;;;23.70;100.00
23164;BME280;31429;42.674;23.350;2023-08-17T00:19:33;94874.25;;;23.54;100.00
23164;BME280;31429;42.674;23.350;2023-08-17T00:20:33;94882.63;;;23.48;100.00
23164;BME280;31429;42.674;23.350;2023-08-17T00:21:34;94881.25;;;23.44;100.00
23164;BME280;31429;42.674;23.350;2023-08-17T00:22:54;94882.38;;;23.30;100.00
23164;BME280;31429;42.674;23.350;2023-08-17T00:23:55;94882.38;;;23.30;100.00
23164;BME280;31429;42.674;23.350;2023-08-17T00:25:16;94879.22;;;23.57;100.00
23164;BME280;31429;42.674;23.350;2023-08-17T00:26:16;94885.22;;;23.48;100.00
23164;BME280;31429;42.674;23.350;2023-08-17T00:27:17;94880.56;;;23.52;100.00
23164;BME280;31429;42.674;23.350;2023-08-17T00:28:18;94884.03;;;23.31;100.00
23164;BME280;31429;42.674;23.350;2023-08-17T00:29:18;94886.34;;;23.25;100.00
23164;BME280;31429;42.674;23.350;2023-08-17T00:30:19;94888.00;;;23.26;100.00
23164;BME280;31429;42.674;23.350;2023-08-17T00:31:20;94881.69;;;23.28;100.00
23164;BME280;31429;42.674;23.350;2023-08-17T00:32:20;94883.97;;;23.22;100.00
23164;BME280;31429;42.674;23.350;2023-08-17T00:33:22;94882.50;;;23.29;100.00
23164;BME280;31429;42.674;23.350;2023-08-17T00:34:23;94880.00;;;23.48;100.00
23164;BME280;31429;42.674;23.350;2023-08-17T00:35:24;94877.22;;;23.40;100.00
23164;BME280;31429;42.674;23.350;2023-08-17T00:36:24;94878.56;;;23.34;100.00
23164;BME280;31429;42.674;23.350;2023-08-17T00:37:25;94874.38;;;23.43;100.00
23164;BME280;31429;42.674;23.350;2023-08-17T00:38:26;94876.78;;;23.35;100.00
23164;BME280;31429;42.674;23.350;2023-08-17T00:39:26;94875.63;;;23.28;100.00
23164;BME280;31429;42.674;23.350;2023-08-17T00:40:27;94870.94;;;23.22;100.00
23164;BME280;31429;42.674;23.350;2023-08-17T00:41:27;94867.94;;;23.47;100.00
23164;BME280;31429;42.674;23.350;2023-08-17T00:42:48;94872.34;;;23.56;100.00
23164;BME280;31429;42.674;23.350;2023-08-17T00:44:09;94866.19;;;23.76;100.00
23164;BME280;31429;42.674;23.350;2023-08-17T00:45:11;94868.53;;;23.70;100.00
23164;BME280;31429;42.674;23.350;2023-08-17T00:46:12;94874.78;;;23.38;100.00
23164;BME280;31429;42.674;23.350;2023-08-17T00:47:14;94871.69;;;23.33;100.00
23164;BME280;31429;42.674;23.350;2023-08-17T00:48:15;94869.16;;;23.43;100.00
23164;BME280;31429;42.674;23.350;2023-08-17T00:49:17;94874.63;;;23.40;100.00
23164;BME280;31429;42.674;23.350;2023-08-17T00:50:18;94873.25;;;23.15;100.00
23164;BME280;31429;42.674;23.350;2023-08-17T00:51:19;94868.25;;;23.03;100.00
23164;BME280;31429;42.674;23.350;2023-08-17T00:52:39;94876.75;;;23.05;100.00
23164;BME280;31429;42.674;23.350;2023-08-17T00:54:22;94874.41;;;23.02;100.00
23164;BME280;31429;42.674;23.350;2023-08-17T00:55:24;94877.56;;;22.96;100.00
23164;BME280;31429;42.674;23.350;2023-08-17T00:56:26;94866.66;;;22.90;100.00
23164;BME280;31429;42.674;23.350;2023-08-17T00:57:27;94866.91;;;22.87;100.00
23164;BME280;31429;42.674;23.350;2023-08-17T00:58:27;94868.81;;;22.76;100.00
23164;BME280;31429;42.674;23.350;2023-08-17T00:59:28;94863.97;;;22.71;100.00
23164;BME280;31429;42.674;23.350;2023-08-17T01:00:29;94876.41;;;22.68;100.00
23164;BME280;31429;42.674;23.350;2023-08-17T01:01:50;94872.59;;;22.72;100.00
23164;BME280;31429;42.674;23.350;2023-08-17T01:02:51;94872.66;;;22.61;100.00
23164;BME280;31429;42.674;23.350;2023-08-17T01:04:11;94873.72;;;22.58;100.00
23164;BME280;31429;42.674;23.350;2023-08-17T01:05:13;94873.81;;;22.68;100.00
23164;BME280;31429;42.674;23.350;2023-08-17T01:06:14;94871.78;;;22.71;100.00
23164;BME280;31429;42.674;23.350;2023-08-17T01:07:14;94866.84;;;22.57;100.00
23164;BME280;31429;42.674;23.350;2023-08-17T01:08:15;94862.53;;;22.47;100.00
23164;BME280;31429;42.674;23.350;2023-08-17T01:09:16;94871.69;;;22.41;100.00
23164;BME280;31429;42.674;23.350;2023-08-17T01:10:16;94866.72;;;22.38;100.00
23164;BME280;31429;42.674;23.350;2023-08-17T01:11:41;94866.38;;;22.31;100.00
23164;BME280;31429;42.674;23.350;2023-08-17T01:13:04;94870.41;;;22.36;100.00
23164;BME280;31429;42.674;23.350;2023-08-17T01:14:27;94869.25;;;22.28;100.00
23164;BME280;31429;42.674;23.350;2023-08-17T01:15:51;94863.19;;;22.28;100.00
23164;BME280;31429;42.674;23.350;2023-08-17T01:17:15;94871.50;;;22.33;100.00
23164;BME280;31429;42.674;23.350;2023-08-17T01:18:21;94869.56;;;22.35;100.00
23164;BME280;31429;42.674;23.350;2023-08-17T01:19:25;94868.94;;;22.22;100.00
23164;BME280;31429;42.674;23.350;2023-08-17T01:20:29;94865.69;;;22.29;100.00
23164;BME280;31429;42.674;23.350;2023-08-17T01:21:36;94865.50;;;22.42;100.00
23164;BME280;31429;42.674;23.350;2023-08-17T01:23:03;94871.03;;;22.49;100.00
23164;BME280;31429;42.674;23.350;2023-08-17T01:24:05;94867.50;;;22.50;100.00
23164;BME280;31429;42.674;23.350;2023-08-17T01:25:06;94867.69;;;22.58;100.00
23164;BME280;31429;42.674;23.350;2023-08-17T01:26:08;94873.78;;;22.47;100.00
23164;BME280;31429;42.674;23.350;2023-08-17T01:27:08;94860.75;;;22.47;100.00
23164;BME280;31429;42.674;23.350;2023-08-17T01:28:09;94866.09;;;22.46;100.00
23164;BME280;31429;42.674;23.350;2023-08-17T01:29:10;94865.78;;;22.39;100.00
23164;BME280;31429;42.674;23.350;2023-08-17T01:30:33;94865.56;;;22.31;100.00
23164;BME280;31429;42.674;23.350;2023-08-17T01:31:57;94868.41;;;22.28;100.00
23164;BME280;31429;42.674;23.350;2023-08-17T01:33:24;94859.66;;;22.29;100.00
23164;BME280;31429;42.674;23.350;2023-08-17T01:34:50;94860.25;;;22.32;100.00
23164;BME280;31429;42.674;23.350;2023-08-17T01:36:16;94865.81;;;22.28;100.00
23164;BME280;31429;42.674;23.350;2023-08-17T01:37:20;94863.16;;;22.18;100.00
23164;BME280;31429;42.674;23.350;2023-08-17T01:38:24;94864.03;;;22.28;100.00
23164;BME280;31429;42.674;23.350;2023-08-17T01:39:31;94858.28;;;22.25;100.00
23164;BME280;31429;42.674;23.350;2023-08-17T01:40:56;94863.47;;;22.25;100.00
23164;BME280;31429;42.674;23.350;2023-08-17T01:41:58;94866.19;;;22.23;100.00
23164;BME280;31429;42.674;23.350;2023-08-17T01:43:01;94862.25;;;22.29;100.00
23164;BME280;31429;42.674;23.350;2023-08-17T01:44:03;94862.59;;;22.36;100.00
23164;BME280;31429;42.674;23.350;2023-08-17T01:45:05;94860.88;;;22.25;100.00
23164;BME280;31429;42.674;23.350;2023-08-17T01:46:07;94866.34;;;22.22;100.00
23164;BME280;31429;42.674;23.350;2023-08-17T01:47:07;94868.72;;;22.14;100.00
23164;BME280;31429;42.674;23.350;2023-08-17T01:48:08;94867.31;;;22.10;100.00
23164;BME280;31429;42.674;23.350;2023-08-17T01:49:09;94867.19;;;22.11;100.00
23164;BME280;31429;42.674;23.350;2023-08-17T01:50:09;94871.69;;;22.09;100.00
23164;BME280;31429;42.674;23.350;2023-08-17T01:51:11;94867.31;;;22.10;100.00
23164;BME280;31429;42.674;23.350;2023-08-17T01:52:12;94865.06;;;22.05;100.00
23164;BME280;31429;42.674;23.350;2023-08-17T01:53:13;94866.41;;;22.00;100.00
23164;BME280;31429;42.674;23.350;2023-08-17T01:54:15;94864.13;;;22.06;100.00
23164;BME280;31429;42.674;23.350;2023-08-17T01:55:16;94860.13;;;22.02;100.00
23164;BME280;31429;42.674;23.350;2023-08-17T01:56:17;94863.22;;;21.96;100.00
23164;BME280;31429;42.674;23.350;2023-08-17T01:57:18;94866.53;;;21.98;100.00
23164;BME280;31429;42.674;23.350;2023-08-17T01:58:18;94864.88;;;21.97;100.00
23164;BME280;31429;42.674;23.350;2023-08-17T01:59:19;94867.03;;;21.92;100.00
23164;BME280;31429;42.674;23.350;2023-08-17T02:00:20;94860.03;;;21.93;100.00
23164;BME280;31429;42.674;23.350;2023-08-17T02:01:20;94862.66;;;21.93;100.00
23164;BME280;31429;42.674;23.350;2023-08-17T02:02:21;94866.91;;;21.94;100.00
23164;BME280;31429;42.674;23.350;2023-08-17T02:03:42;94860.50;;;21.87;100.00
23164;BME280;31429;42.674;23.350;2023-08-17T02:04:42;94863.34;;;21.84;100.00
23164;BME280;31429;42.674;23.350;2023-08-17T02:05:44;94864.03;;;21.86;100.00
23164;BME280;31429;42.674;23.350;2023-08-17T02:06:45;94862.06;;;21.89;100.00
23164;BME280;31429;42.674;23.350;2023-08-17T02:07:45;94864.66;;;21.89;100.00
23164;BME280;31429;42.674;23.350;2023-08-17T02:08:46;94858.84;;;21.86;100.00
23164;BME280;31429;42.674;23.350;2023-08-17T02:09:48;94864.28;;;21.83;100.00
23164;BME280;31429;42.674;23.350;2023-08-17T02:10:49;94869.88;;;21.78;100.00
23164;BME280;31429;42.674;23.350;2023-08-17T02:11:50;94870.81;;;21.77;100.00
23164;BME280;31429;42.674;23.350;2023-08-17T02:12:50;94863.25;;;21.74;100.00
23164;BME280;31429;42.674;23.350;2023-08-17T02:13:51;94853.44;;;21.66;100.00
23164;BME280;31429;42.674;23.350;2023-08-17T02:14:52;94867.28;;;21.67;100.00
23164;BME280;31429;42.674;23.350;2023-08-17T02:16:12;94864.44;;;21.70;100.00
23164;BME280;31429;42.674;23.350;2023-08-17T02:17:13;94868.97;;;21.68;100.00
23164;BME280;31429;42.674;23.350;2023-08-17T02:18:33;94862.31;;;21.64;100.00
23164;BME280;31429;42.674;23.350;2023-08-17T02:19:54;94868.38;;;21.64;100.00
23164;BME280;31429;42.674;23.350;2023-08-17T02:20:54;94860.66;;;21.63;100.00
23164;BME280;31429;42.674;23.350;2023-08-17T02:21:55;94866.25;;;21.58;100.00
23164;BME280;31429;42.674;23.350;2023-08-17T02:22:56;94865.06;;;21.51;100.00
23164;BME280;31429;42.674;23.350;2023-08-17T02:23:56;94861.53;;;21.52;100.00
23164;BME280;31429;42.674;23.350;2023-08-17T02:24:58;94860.59;;;21.53;100.00
23164;BME280;31429;42.674;23.350;2023-08-17T02:25:59;94855.13;;;21.56;100.00
23164;BME280;31429;42.674;23.350;2023-08-17T02:27:00;94861.53;;;21.52;100.00
23164;BME280;31429;42.674;23.350;2023-08-17T02:28:01;94861.16;;;21.46;100.00
23164;BME280;31429;42.674;23.350;2023-08-17T02:29:22;94866.38;;;21.46;100.00
23164;BME280;31429;42.674;23.350;2023-08-17T02:30:22;94862.13;;;21.45;100.00
23164;BME280;31429;42.674;23.350;2023-08-17T02:31:23;94853.59;;;21.43;100.00
23164;BME280;31429;42.674;23.350;2023-08-17T02:32:23;94861.41;;;21.32;100.00
23164;BME280;31429;42.674;23.350;2023-08-17T02:33:24;94851.38;;;21.27;100.00
23164;BME280;31429;42.674;23.350;2023-08-17T02:34:25;94856.59;;;21.27;100.00
23164;BME280;31429;42.674;23.350;2023-08-17T02:35:25;94858.59;;;21.24;100.00
23164;BME280;31429;42.674;23.350;2023-08-17T02:36:26;94858.59;;;21.24;100.00
23164;BME280;31429;42.674;23.350;2023-08-17T02:37:27;94859.66;;;21.21;100.00
23164;BME280;31429;42.674;23.350;2023-08-17T02:38:27;94856.22;;;21.20;100.00
23164;BME280;31429;42.674;23.350;2023-08-17T02:39:28;94862.25;;;21.21;100.00
23164;BME280;31429;42.674;23.350;2023-08-17T02:40:30;94854.47;;;21.21;100.00
23164;BME280;31429;42.674;23.350;2023-08-17T02:41:31;94856.13;;;21.22;100.00
23164;BME280;31429;42.674;23.350;2023-08-17T02:42:51;94853.53;;;21.22;100.00
23164;BME280;31429;42.674;23.350;2023-08-17T02:43:52;94854.00;;;21.27;100.00
23164;BME280;31429;42.674;23.350;2023-08-17T02:44:52;94852.22;;;21.28;100.00
23164;BME280;31429;42.674;23.350;2023-08-17T02:45:53;94859.19;;;21.27;100.00
23164;BME280;31429;42.674;23.350;2023-08-17T02:46:54;94861.78;;;21.27;100.00
23164;BME280;31429;42.674;23.350;2023-08-17T02:47:54;94860.13;;;21.26;100.00
23164;BME280;31429;42.674;23.350;2023-08-17T02:48:55;94855.88;;;21.25;100.00
23164;BME280;31429;42.674;23.350;2023-08-17T02:49:56;94856.59;;;21.16;100.00
23164;BME280;31429;42.674;23.350;2023-08-17T02:50:56;94855.41;;;21.09;100.00
23164;BME280;31429;42.674;23.350;2023-08-17T02:51:57;94856.81;;;21.02;100.00
23164;BME280;31429;42.674;23.350;2023-08-17T02:52:57;94855.25;;;20.88;100.00
23164;BME280;31429;42.674;23.350;2023-08-17T02:53:58;94854.06;;;20.81;100.00
23164;BME280;31429;42.674;23.350;2023-08-17T02:54:59;94852.88;;;20.74;100.00
23164;BME280;31429;42.674;23.350;2023-08-17T02:56:01;94856.41;;;20.73;100.00
23164;BME280;31429;42.674;23.350;2023-08-17T02:57:01;94850.63;;;20.70;100.00
23164;BME280;31429;42.674;23.350;2023-08-17T02:58:02;94848.25;;;20.67;100.00
23164;BME280;31429;42.674;23.350;2023-08-17T02:59:03;94849.78;;;20.69;100.00
23164;BME280;31429;42.674;23.350;2023-08-17T03:00:05;94851.06;;;20.63;100.00
23164;BME280;31429;42.674;23.350;2023-08-17T03:01:06;94846.63;;;20.66;100.00
23164;BME280;31429;42.674;23.350;2023-08-17T03:02:07;94853.22;;;20.70;100.00
23164;BME280;31429;42.674;23.350;2023-08-17T03:03:08;94848.97;;;20.69;100.00
23164;BME280;31429;42.674;23.350;2023-08-17T03:04:08;94854.75;;;20.72;100.00
23164;BME280;31429;42.674;23.350;2023-08-17T03:05:09;94841.66;;;20.74;100.00
23164;BME280;31429;42.674;23.350;2023-08-17T03:06:10;94845.09;;;20.74;100.00
23164;BME280;31429;42.674;23.350;2023-08-17T03:07:10;94844.13;;;20.75;100.00
23164;BME280;31429;42.674;23.350;2023-08-17T03:08:11;94839.16;;;20.72;100.00
23164;BME280;31429;42.674;23.350;2023-08-17T03:09:11;94844.94;;;20.64;100.00
23164;BME280;31429;42.674;23.350;2023-08-17T03:10:12;94856.75;;;20.57;100.00
23164;BME280;31429;42.674;23.350;2023-08-17T03:11:14;94852.25;;;20.48;100.00
23164;BME280;31429;42.674;23.350;2023-08-17T03:12:15;94849.88;;;20.45;100.00
23164;BME280;31429;42.674;23.350;2023-08-17T03:13:15;94856.94;;;20.43;100.00
23164;BME280;31429;42.674;23.350;2023-08-17T03:14:16;94854.00;;;20.48;100.00
23164;BME280;31429;42.674;23.350;2023-08-17T03:15:17;94851.19;;;20.51;100.00
23164;BME280;31429;42.674;23.350;2023-08-17T03:16:18;94850.97;;;20.54;100.00
23164;BME280;31429;42.674;23.350;2023-08-17T03:17:18;94853.44;;;20.55;100.00
23164;BME280;31429;42.674;23.350;2023-08-17T03:18:19;94854.97;;;20.58;100.00
23164;BME280;31429;42.674;23.350;2023-08-17T03:19:20;94855.69;;;20.60;100.00
23164;BME280;31429;42.674;23.350;2023-08-17T03:20:40;94854.63;;;20.62;100.00
23164;BME280;31429;42.674;23.350;2023-08-17T03:21:41;94853.91;;;20.60;100.00
23164;BME280;31429;42.674;23.350;2023-08-17T03:22:41;94857.47;;;20.59;100.00
23164;BME280;31429;42.674;23.350;2023-08-17T03:23:42;94848.22;;;20.55;100.00
23164;BME280;31429;42.674;23.350;2023-08-17T03:24:43;94853.66;;;20.52;100.00
23164;BME280;31429;42.674;23.350;2023-08-17T03:25:43;94849.53;;;20.50;100.00
23164;BME280;31429;42.674;23.350;2023-08-17T03:26:47;94856.16;;;20.54;100.00
23164;BME280;31429;42.674;23.350;2023-08-17T03:27:48;94857.00;;;20.54;100.00
23164;BME280;31429;42.674;23.350;2023-08-17T03:28:48;94854.16;;;20.57;100.00
23164;BME280;31429;42.674;23.350;2023-08-17T03:29:49;94855.78;;;20.58;100.00
23164;BME280;31429;42.674;23.350;2023-08-17T03:30:50;94851.56;;;20.57;100.00
23164;BME280;31429;42.674;23.350;2023-08-17T03:31:50;94855.09;;;20.56;100.00
23164;BME280;31429;42.674;23.350;2023-08-17T03:32:51;94853.78;;;20.51;100.00
23164;BME280;31429;42.674;23.350;2023-08-17T03:33:51;94853.31;;;20.46;100.00
23164;BME280;31429;42.674;23.350;2023-08-17T03:34:52;94850.94;;;20.43;100.00
23164;BME280;31429;42.674;23.350;2023-08-17T03:35:53;94856.13;;;20.43;100.00
23164;BME280;31429;42.674;23.350;2023-08-17T03:36:53;94856.22;;;20.41;100.00
23164;BME280;31429;42.674;23.350;2023-08-17T03:37:54;94854.34;;;20.43;100.00
23164;BME280;31429;42.674;23.350;2023-08-17T03:38:54;94855.06;;;20.45;100.00
23164;BME280;31429;42.674;23.350;2023-08-17T03:39:55;94860.88;;;20.49;100.00
23164;BME280;31429;42.674;23.350;2023-08-17T03:40:56;94856.25;;;20.52;100.00
23164;BME280;31429;42.674;23.350;2023-08-17T03:41:58;94849.78;;;20.58;100.00
23164;BME280;31429;42.674;23.350;2023-08-17T03:42:58;94852.97;;;20.61;100.00
23164;BME280;31429;42.674;23.350;2023-08-17T03:43:59;94867.28;;;20.67;100.00
23164;BME280;31429;42.674;23.350;2023-08-17T03:45:00;94858.53;;;20.68;100.00
23164;BME280;31429;42.674;23.350;2023-08-17T03:46:01;94860.91;;;20.71;100.00
23164;BME280;31429;42.674;23.350;2023-08-17T03:47:02;94863.75;;;20.68;100.00
23164;BME280;31429;42.674;23.350;2023-08-17T03:48:03;94858.78;;;20.65;100.00
23164;BME280;31429;42.674;23.350;2023-08-17T03:49:04;94861.75;;;20.72;100.00
23164;BME280;31429;42.674;23.350;2023-08-17T03:50:06;94868.94;;;20.68;100.00
23164;BME280;31429;42.674;23.350;2023-08-17T03:51:06;94859.84;;;20.62;100.00
23164;BME280;31429;42.674;23.350;2023-08-17T03:52:07;94861.00;;;20.58;100.00
23164;BME280;31429;42.674;23.350;2023-08-17T03:53:08;94860.75;;;20.50;100.00
23164;BME280;31429;42.674;23.350;2023-08-17T03:54:09;94857.31;;;20.50;100.00
23164;BME280;31429;42.674;23.350;2023-08-17T03:55:09;94859.06;;;20.49;100.00
23164;BME280;31429;42.674;23.350;2023-08-17T03:56:10;94858.28;;;20.49;100.00
23164;BME280;31429;42.674;23.350;2023-08-17T03:57:12;94860.63;;;20.52;100.00
23164;BME280;31429;42.674;23.350;2023-08-17T03:58:13;94853.34;;;20.57;100.00
23164;BME280;31429;42.674;23.350;2023-08-17T03:59:14;94865.25;;;20.59;100.00
23164;BME280;31429;42.674;23.350;2023-08-17T04:00:14;94868.56;;;20.61;100.00
23164;BME280;31429;42.674;23.350;2023-08-17T04:01:15;94860.75;;;20.61;100.00
23164;BME280;31429;42.674;23.350;2023-08-17T04:02:16;94866.34;;;20.68;100.00
23164;BME280;31429;42.674;23.350;2023-08-17T04:03:16;94872.13;;;20.72;100.00
23164;BME280;31429;42.674;23.350;2023-08-17T04:04:17;94862.22;;;20.77;100.00
23164;BME280;31429;42.674;23.350;2023-08-17T04:05:18;94864.91;;;20.75;100.00
23164;BME280;31429;42.674;23.350;2023-08-17T04:06:18;94870.34;;;20.72;100.00
23164;BME280;31429;42.674;23.350;2023-08-17T04:07:21;94869.41;;;20.73;100.00
23164;BME280;31429;42.674;23.350;2023-08-17T04:08:41;94875.09;;;20.78;100.00
23164;BME280;31429;42.674;23.350;2023-08-17T04:09:44;94872.16;;;20.83;100.00
23164;BME280;31429;42.674;23.350;2023-08-17T04:11:04;94868.13;;;20.90;100.00
23164;BME280;31429;42.674;23.350;2023-08-17T04:12:06;94871.31;;;20.93;100.00
23164;BME280;31429;42.674;23.350;2023-08-17T04:13:08;94873.00;;;20.94;100.00
23164;BME280;31429;42.674;23.350;2023-08-17T04:14:09;94869.09;;;21.00;100.00
23164;BME280;31429;42.674;23.350;2023-08-17T04:15:10;94870.03;;;20.99;100.00
23164;BME280;31429;42.674;23.350;2023-08-17T04:16:10;94862.47;;;20.96;100.00
23164;BME280;31429;42.674;23.350;2023-08-17T04:17:11;94869.91;;;21.00;100.00
23164;BME280;31429;42.674;23.350;2023-08-17T04:18:12;94875.69;;;21.04;100.00
23164;BME280;31429;42.674;23.350;2023-08-17T04:19:13;94871.97;;;21.08;100.00
23164;BME280;31429;42.674;23.350;2023-08-17T04:20:13;94872.16;;;21.05;100.00
23164;BME280;31429;42.674;23.350;2023-08-17T04:21:14;94876.34;;;21.07;100.00
23164;BME280;31429;42.674;23.350;2023-08-17T04:22:15;94873.38;;;21.12;100.00
23164;BME280;31429;42.674;23.350;2023-08-17T04:23:15;94876.56;;;21.15;100.00
23164;BME280;31429;42.674;23.350;2023-08-17T04:24:16;94869.59;;;21.16;100.00
23164;BME280;31429;42.674;23.350;2023-08-17T04:25:17;94870.06;;;21.21;100.00
23164;BME280;31429;42.674;23.350;2023-08-17T04:26:17;94869.34;;;21.19;100.00
23164;BME280;31429;42.674;23.350;2023-08-17T04:27:18;94865.19;;;21.05;100.00
23164;BME280;31429;42.674;23.350;2023-08-17T04:28:20;94865.91;;;20.96;100.00
23164;BME280;31429;42.674;23.350;2023-08-17T04:29:21;94865.53;;;20.90;100.00
23164;BME280;31429;42.674;23.350;2023-08-17T04:30:21;94865.66;;;20.88;100.00
23164;BME280;31429;42.674;23.350;2023-08-17T04:31:22;94866.72;;;20.86;100.00
23164;BME280;31429;42.674;23.350;2023-08-17T04:32:43;94862.22;;;20.88;100.00
23164;BME280;31429;42.674;23.350;2023-08-17T04:33:43;94864.22;;;20.84;100.00
23164;BME280;31429;42.674;23.350;2023-08-17T04:34:45;94860.22;;;20.91;100.00
23164;BME280;31429;42.674;23.350;2023-08-17T04:35:46;94865.06;;;20.96;100.00
23164;BME280;31429;42.674;23.350;2023-08-17T04:36:48;94859.72;;;20.97;100.00
23164;BME280;31429;42.674;23.350;2023-08-17T04:37:48;94864.16;;;21.08;100.00
23164;BME280;31429;42.674;23.350;2023-08-17T04:38:49;94866.63;;;21.20;100.00
23164;BME280;31429;42.674;23.350;2023-08-17T04:39:49;94869.22;;;21.32;100.00
23164;BME280;31429;42.674;23.350;2023-08-17T04:40:50;94866.88;;;21.40;100.00
23164;BME280;31429;42.674;23.350;2023-08-17T04:41:51;94875.47;;;21.51;100.00
23164;BME280;31429;42.674;23.350;2023-08-17T04:42:51;94870.38;;;21.61;100.00
23164;BME280;31429;42.674;23.350;2023-08-17T04:43:53;94873.44;;;21.66;100.00
23164;BME280;31429;42.674;23.350;2023-08-17T04:44:54;94871.31;;;21.71;100.00
23164;BME280;31429;42.674;23.350;2023-08-17T04:45:55;94867.16;;;21.80;100.00
23164;BME280;31429;42.674;23.350;2023-08-17T04:46:55;94871.78;;;21.87;100.00
23164;BME280;31429;42.674;23.350;2023-08-17T04:47:56;94875.75;;;21.91;100.00
23164;BME280;31429;42.674;23.350;2023-08-17T04:48:57;94871.84;;;21.97;100.00
23164;BME280;31429;42.674;23.350;2023-08-17T04:49:57;94865.34;;;22.02;100.00
23164;BME280;31429;42.674;23.350;2023-08-17T04:50:58;94865.91;;;22.06;100.00
23164;BME280;31429;42.674;23.350;2023-08-17T04:51:59;94868.50;;;22.06;100.00
23164;BME280;31429;42.674;23.350;2023-08-17T04:53:00;94861.19;;;22.00;100.00
23164;BME280;31429;42.674;23.350;2023-08-17T04:54:00;94867.22;;;22.00;100.00
23164;BME280;31429;42.674;23.350;2023-08-17T04:55:01;94864.03;;;21.97;100.00
23164;BME280;31429;42.674;23.350;2023-08-17T04:56:02;94856.03;;;21.77;100.00
23164;BME280;31429;42.674;23.350;2023-08-17T04:57:23;94862.28;;;21.86;100.00
23164;BME280;31429;42.674;23.350;2023-08-17T04:58:44;94860.06;;;21.70;100.00
23164;BME280;31429;42.674;23.350;2023-08-17T04:59:46;94861.66;;;21.51;100.00
23164;BME280;31429;42.674;23.350;2023-08-17T05:00:46;94863.91;;;21.44;100.00
23164;BME280;31429;42.674;23.350;2023-08-17T05:02:07;94864.75;;;21.34;100.00
23164;BME280;31429;42.674;23.350;2023-08-17T05:03:08;94857.19;;;21.31;100.00
23164;BME280;31429;42.674;23.350;2023-08-17T05:04:08;94865.69;;;21.33;100.00
23164;BME280;31429;42.674;23.350;2023-08-17T05:05:29;94868.53;;;21.30;100.00
23164;BME280;31429;42.674;23.350;2023-08-17T05:06:30;94867.34;;;21.34;100.00
23164;BME280;31429;42.674;23.350;2023-08-17T05:08:10;94867.56;;;21.42;100.00
23164;BME280;31429;42.674;23.350;2023-08-17T05:09:11;94869.81;;;21.35;100.00
23164;BME280;31429;42.674;23.350;2023-08-17T05:10:12;94872.31;;;21.37;100.00
23164;BME280;31429;42.674;23.350;2023-08-17T05:11:12;94871.94;;;21.41;100.00
23164;BME280;31429;42.674;23.350;2023-08-17T05:12:13;94865.53;;;21.56;100.00
23164;BME280;31429;42.674;23.350;2023-08-17T05:13:14;94865.03;;;21.73;100.00
23164;BME280;31429;42.674;23.350;2023-08-17T05:14:14;94862.50;;;21.83;100.00
23164;BME280;31429;42.674;23.350;2023-08-17T05:15:17;94864.81;;;21.76;100.00
23164;BME280;31429;42.674;23.350;2023-08-17T05:16:17;94870.50;;;21.70;100.00
23164;BME280;31429;42.674;23.350;2023-08-17T05:17:18;94867.25;;;21.78;100.00
23164;BME280;31429;42.674;23.350;2023-08-17T05:18:19;94867.03;;;21.81;100.00
23164;BME280;31429;42.674;23.350;2023-08-17T05:19:19;94863.97;;;21.76;100.00
23164;BME280;31429;42.674;23.350;2023-08-17T05:20:20;94869.13;;;21.98;100.00
23164;BME280;31429;42.674;23.350;2023-08-17T05:21:21;94867.06;;;22.13;100.00
23164;BME280;31429;42.674;23.350;2023-08-17T05:22:21;94866.97;;;22.35;100.00
23164;BME280;31429;42.674;23.350;2023-08-17T05:23:22;94863.88;;;22.41;100.00
23164;BME280;31429;42.674;23.350;2023-08-17T05:24:23;94856.09;;;22.51;100.00
23164;BME280;31429;42.674;23.350;2023-08-17T05:25:23;94872.84;;;22.69;100.00
23164;BME280;31429;42.674;23.350;2023-08-17T05:26:44;94867.69;;;22.58;100.00
23164;BME280;31429;42.674;23.350;2023-08-17T05:27:45;94867.34;;;22.51;100.00
23164;BME280;31429;42.674;23.350;2023-08-17T05:28:45;94856.50;;;22.46;100.00